Ollie, Iowa
Current Conditions -  °F | °C
As of 5:15 PM on Saturday 25 Oct 2014 (Local Time) from KFFL Reporting Station
Clear Clear  
Wind Chill: 70°   Ceiling: Unl
Heat Index: 70°   Visibility: NA
Dew Point: 37°   Wind: 5mph
Humidity: 31%   Direction: 350°N
Pressure: 30.05"   Gusts: NA
Location:  41.2°N, 92.09°W
Report Text: KFFL 252215Z AUTO 35004KT CLR 21/03 A3005 RMK AO2
Loading
Personal Weather Stations






























Interactive Weather Map
Tropical Storm Tracking
New forecast layout! Learn more

10-Day Weather Forecast

Advertisements
Track Severe Weather on mobile